Time;durP1;ratioP1;P1;durP2;ratioP2;P2;SDS_P1;SDS_P2;PMS_P1;PMS_P2;Temp;Humidity;BMP_temperature;BMP_pressure;BME280_temperature;BME280_humidity;BME280_pressure;Samples;Min_cycle;Max_cycle;Signal;HPM_P1;HPM_P2
2023/04/10 00:01:04;;;;;;;25.20;13.73;;;2.40;99.90;;;;;;5058854;28;20037;-61
2023/04/10 00:03:46;;;;;;;26.90;14.00;;;2.40;99.90;;;;;;5062293;28;20745;-60
2023/04/10 00:06:27;;;;;;;26.73;14.65;;;2.40;99.90;;;;;;5059818;28;20074;-56
2023/04/10 00:09:09;;;;;;;23.63;14.10;;;2.40;99.90;;;;;;5060895;28;20123;-59
2023/04/10 00:11:50;;;;;;;22.42;12.73;;;2.30;99.90;;;;;;5059437;28;20041;-62
2023/04/10 00:14:30;;;;;;;22.38;13.40;;;2.30;99.90;;;;;;5059957;28;20366;-61
2023/04/10 00:17:11;;;;;;;25.38;13.82;;;2.40;99.90;;;;;;5057219;28;20052;-53
2023/04/10 00:19:52;;;;;;;26.00;13.88;;;2.30;99.90;;;;;;5047930;28;20085;-62
2023/04/10 00:22:36;;;;;;;21.70;12.63;;;2.30;99.90;;;;;;5047095;28;20416;-60
2023/04/10 00:25:21;;;;;;;21.95;11.88;;;2.40;99.90;;;;;;5046696;28;20094;-58
2023/04/10 00:28:06;;;;;;;24.45;13.73;;;2.40;99.90;;;;;;5049934;28;20397;-59
2023/04/10 00:30:50;;;;;;;24.67;13.25;;;2.30;99.90;;;;;;5044117;28;20048;-60
2023/04/10 00:33:15;;;;;;;22.70;12.63;;;2.30;99.90;;;;;;5046342;28;20115;-55
2023/04/10 00:35:41;;;;;;;22.10;12.20;;;2.30;99.90;;;;;;5046474;28;20081;-61
2023/04/10 00:38:06;;;;;;;19.63;10.75;;;2.30;99.90;;;;;;5047627;28;20491;-62
2023/04/10 00:40:32;;;;;;;23.70;13.10;;;2.40;99.90;;;;;;5047418;28;20041;-58
2023/04/10 00:42:58;;;;;;;19.52;11.38;;;2.30;99.90;;;;;;5046172;28;20338;-61
2023/04/10 00:45:24;;;;;;;22.70;12.52;;;2.30;99.90;;;;;;5045667;28;20067;-61
2023/04/10 00:47:50;;;;;;;22.02;11.75;;;2.20;99.90;;;;;;5046366;28;20048;-61
2023/04/10 00:50:16;;;;;;;19.33;11.50;;;2.30;99.90;;;;;;5046975;28;20036;-59
2023/04/10 00:52:42;;;;;;;23.17;12.38;;;2.30;99.90;;;;;;5047319;28;20690;-60
2023/04/10 00:55:09;;;;;;;23.80;12.75;;;2.30;99.90;;;;;;5046218;28;20040;-63
2023/04/10 00:57:36;;;;;;;23.65;12.23;;;2.20;99.90;;;;;;5046149;28;20029;-60
2023/04/10 01:00:03;;;;;;;26.92;12.85;;;2.20;99.90;;;;;;5038248;28;20083;-62
2023/04/10 01:02:29;;;;;;;22.20;11.52;;;2.20;99.90;;;;;;5044759;28;20075;-62
2023/04/10 01:04:55;;;;;;;19.05;9.98;;;2.20;99.90;;;;;;5046585;28;20072;-64
2023/04/10 01:07:42;;;;;;;23.30;11.07;;;2.20;99.90;;;;;;5046158;28;20464;-61
2023/04/10 01:10:30;;;;;;;16.33;9.63;;;2.20;99.90;;;;;;5046817;28;20033;-61
2023/04/10 01:13:18;;;;;;;21.80;11.32;;;2.20;99.90;;;;;;5046020;28;20044;-60
2023/04/10 01:15:53;;;;;;;21.02;10.82;;;2.20;99.90;;;;;;5045019;28;20051;-56
2023/04/10 01:18:27;;;;;;;18.33;10.85;;;2.10;99.90;;;;;;5041865;28;20044;-54
2023/04/10 01:20:53;;;;;;;18.65;10.35;;;2.10;99.90;;;;;;5047710;28;20044;-57
2023/04/10 01:23:35;;;;;;;17.92;10.18;;;2.10;99.90;;;;;;5046531;28;20111;-57
2023/04/10 01:26:06;;;;;;;18.15;9.77;;;2.10;99.90;;;;;;5045114;28;20572;-57
2023/04/10 01:28:59;;;;;;;17.92;10.25;;;2.20;99.90;;;;;;5045754;28;20091;-53
2023/04/10 01:31:52;;;;;;;25.20;12.48;;;2.10;99.90;;;;;;5044694;28;20090;-56
2023/04/10 01:34:36;;;;;;;17.85;9.70;;;2.10;99.90;;;;;;5046429;28;20871;-63
2023/04/10 01:37:12;;;;;;;16.88;9.90;;;2.10;99.90;;;;;;5044313;28;20045;-63
2023/04/10 01:39:40;;;;;;;17.40;10.73;;;2.10;99.90;;;;;;5044741;28;20117;-58
2023/04/10 01:42:07;;;;;;;18.52;10.93;;;2.10;99.90;;;;;;5045336;28;20049;-57
2023/04/10 01:44:35;;;;;;;20.10;10.80;;;2.00;99.90;;;;;;5045950;28;20047;-61
2023/04/10 01:47:03;;;;;;;19.77;11.00;;;2.00;99.90;;;;;;5044233;28;20512;-60
2023/04/10 01:49:30;;;;;;;17.95;11.02;;;2.00;99.90;;;;;;5045999;28;20040;-62
2023/04/10 01:51:59;;;;;;;16.80;9.88;;;2.00;99.90;;;;;;5045190;28;20087;-60
2023/04/10 01:54:26;;;;;;;19.08;9.73;;;2.00;99.90;;;;;;5046023;28;20045;-63
2023/04/10 01:56:52;;;;;;;22.23;11.63;;;2.00;99.90;;;;;;5044107;28;20563;-58
2023/04/10 01:59:19;;;;;;;18.85;10.57;;;2.00;99.90;;;;;;5044636;28;20048;-57
2023/04/10 02:01:44;;;;;;;21.92;10.45;;;2.00;99.90;;;;;;5043205;28;20050;-58
2023/04/10 02:04:10;;;;;;;19.88;11.65;;;2.00;99.90;;;;;;5045996;28;20040;-62
2023/04/10 02:06:57;;;;;;;25.20;10.38;;;2.00;99.90;;;;;;5044649;28;20051;-60
2023/04/10 02:09:58;;;;;;;21.70;10.15;;;2.00;99.90;;;;;;5046166;28;20052;-63
2023/04/10 02:12:35;;;;;;;18.40;10.07;;;2.00;99.90;;;;;;5045769;28;20140;-60
2023/04/10 02:15:01;;;;;;;;;;;1.90;99.90;;;;;;5045537;28;20061;-61
2023/04/10 02:17:28;;;;;;;21.38;10.27;;;2.00;99.90;;;;;;5044581;28;20285;-60
2023/04/10 02:19:58;;;;;;;19.30;9.65;;;1.90;99.90;;;;;;5045257;28;20049;-56
2023/04/10 02:22:24;;;;;;;18.70;9.55;;;1.80;99.90;;;;;;5045475;28;20691;-58
2023/04/10 02:24:53;;;;;;;16.90;9.45;;;1.90;99.90;;;;;;5044435;28;20048;-60
2023/04/10 02:27:34;;;;;;;22.38;10.52;;;2.00;99.90;;;;;;5043988;28;20064;-55
2023/04/10 02:30:02;;;;;;;16.65;9.68;;;2.00;99.90;;;;;;5044944;28;20041;-57
2023/04/10 02:32:28;;;;;;;15.85;9.73;;;2.10;99.90;;;;;;5046519;28;20552;-61
2023/04/10 02:34:55;;;;;;;16.20;9.18;;;2.10;99.90;;;;;;5045769;28;20052;-60
2023/04/10 02:37:21;;;;;;;15.25;9.02;;;2.20;99.90;;;;;;5044777;28;20385;-63
2023/04/10 02:39:46;;;;;;;14.57;9.20;;;2.20;99.90;;;;;;5044571;28;20063;-63
2023/04/10 02:42:12;;;;;;;18.02;9.45;;;2.30;99.90;;;;;;5044510;28;20111;-59
2023/04/10 02:44:40;;;;;;;16.00;9.23;;;2.30;99.90;;;;;;5045369;28;20124;-58
2023/04/10 02:47:06;;;;;;;15.02;8.75;;;2.40;99.90;;;;;;5036319;28;20048;-59
2023/04/10 02:49:34;;;;;;;14.65;8.52;;;2.40;99.90;;;;;;5045700;28;20521;-60
2023/04/10 02:52:00;;;;;;;13.40;8.25;;;2.60;99.90;;;;;;5044264;28;20543;-61
2023/04/10 02:54:26;;;;;;;15.68;9.02;;;2.60;99.90;;;;;;5045055;28;20072;-59
2023/04/10 02:56:51;;;;;;;13.48;8.82;;;2.70;99.90;;;;;;5043772;28;20041;-61
2023/04/10 02:59:17;;;;;;;14.95;9.00;;;2.80;99.90;;;;;;5044546;28;20037;-62
2023/04/10 03:01:45;;;;;;;13.00;7.50;;;2.90;99.90;;;;;;5043484;28;20043;-62
2023/04/10 03:04:10;;;;;;;13.38;8.45;;;3.00;99.90;;;;;;5044554;28;20128;-61
2023/04/10 03:06:36;;;;;;;14.73;7.85;;;3.00;99.90;;;;;;5043084;28;20148;-57
2023/04/10 03:09:01;;;;;;;13.95;8.43;;;3.10;99.90;;;;;;5044407;28;20076;-56
2023/04/10 03:11:27;;;;;;;14.07;8.60;;;3.10;99.90;;;;;;5043757;28;20041;-60
2023/04/10 03:13:53;;;;;;;14.23;8.38;;;3.10;99.90;;;;;;5049764;28;20045;-60
2023/04/10 03:16:18;;;;;;;13.10;7.93;;;3.20;99.90;;;;;;5041559;28;20033;-56
2023/04/10 03:18:44;;;;;;;12.25;7.88;;;3.20;99.90;;;;;;5045093;28;20052;-63
2023/04/10 03:21:10;;;;;;;13.68;7.90;;;3.20;99.90;;;;;;5044184;28;20067;-64
2023/04/10 03:23:36;;;;;;;12.77;7.55;;;3.20;99.90;;;;;;5044731;28;20081;-61
2023/04/10 03:26:03;;;;;;;14.13;7.68;;;3.20;99.90;;;;;;5041510;28;20512;-62
2023/04/10 03:28:29;;;;;;;12.13;7.53;;;3.30;99.90;;;;;;5043031;28;20049;-63
2023/04/10 03:30:56;;;;;;;12.52;8.00;;;3.30;99.90;;;;;;5042517;28;20527;-57
2023/04/10 03:33:21;;;;;;;13.70;8.00;;;3.20;99.90;;;;;;5044906;28;20048;-54
2023/04/10 03:35:47;;;;;;;13.30;7.90;;;3.30;99.90;;;;;;5042027;28;20049;-62
2023/04/10 03:38:13;;;;;;;12.82;8.15;;;3.30;99.90;;;;;;5044729;28;20036;-63
2023/04/10 03:40:39;;;;;;;12.82;7.93;;;3.30;99.90;;;;;;5042963;28;20033;-61
2023/04/10 03:43:05;;;;;;;15.88;8.27;;;3.30;99.90;;;;;;5043732;28;20097;-61
2023/04/10 03:45:30;;;;;;;13.43;8.10;;;3.30;99.90;;;;;;5042744;28;20033;-61
2023/04/10 03:47:57;;;;;;;14.30;8.32;;;3.30;99.90;;;;;;5043576;28;20068;-62
2023/04/10 03:50:23;;;;;;;12.95;7.65;;;3.30;99.90;;;;;;5043857;28;20093;-53
2023/04/10 03:52:49;;;;;;;14.23;8.15;;;3.30;99.90;;;;;;5044927;28;20037;-60
2023/04/10 03:55:17;;;;;;;14.07;8.15;;;3.30;99.90;;;;;;5046619;28;20037;-62
2023/04/10 03:57:45;;;;;;;14.45;8.45;;;3.30;99.90;;;;;;5046516;28;20036;-63
2023/04/10 04:00:12;;;;;;;13.13;8.05;;;3.40;99.90;;;;;;5047657;28;20112;-62
2023/04/10 04:02:37;;;;;;;13.30;8.23;;;3.40;99.90;;;;;;5045474;28;20044;-58
2023/04/10 04:05:03;;;;;;;13.75;8.90;;;3.40;99.90;;;;;;5046932;28;20037;-63
2023/04/10 04:07:29;;;;;;;15.40;9.00;;;3.50;99.90;;;;;;5046156;28;20068;-59
2023/04/10 04:09:54;;;;;;;15.30;8.77;;;3.50;99.90;;;;;;5046427;28;20137;-61
2023/04/10 04:12:20;;;;;;;13.52;8.43;;;3.50;99.90;;;;;;5046646;28;20047;-61
2023/04/10 04:14:46;;;;;;;14.10;8.20;;;3.50;99.90;;;;;;5047067;28;20045;-59
2023/04/10 04:17:11;;;;;;;14.70;9.13;;;3.50;99.90;;;;;;5045605;28;20045;-60
2023/04/10 04:19:37;;;;;;;15.95;8.95;;;3.60;99.90;;;;;;5047436;28;20094;-63
2023/04/10 04:22:03;;;;;;;12.43;7.78;;;3.60;99.90;;;;;;5046252;28;20086;-63
2023/04/10 04:24:28;;;;;;;14.60;9.07;;;3.60;99.90;;;;;;5046731;28;20045;-62
2023/04/10 04:26:55;;;;;;;16.42;9.48;;;3.60;99.90;;;;;;5047504;28;20056;-61
2023/04/10 04:29:21;;;;;;;13.32;8.10;;;3.60;99.90;;;;;;5051775;28;20067;-63
2023/04/10 04:31:46;;;;;;;14.93;9.10;;;3.60;99.90;;;;;;5045247;28;20060;-62
2023/04/10 04:34:12;;;;;;;12.00;7.75;;;3.50;99.90;;;;;;5046712;28;20037;-61
2023/04/10 04:36:38;;;;;;;16.83;8.15;;;3.50;99.90;;;;;;5046583;28;20116;-63
2023/04/10 04:39:03;;;;;;;15.43;9.45;;;3.50;99.90;;;;;;5046074;28;20040;-61
2023/04/10 04:41:31;;;;;;;16.10;9.05;;;3.60;99.90;;;;;;5046136;28;20044;-60
2023/04/10 04:43:57;;;;;;;15.75;9.07;;;3.60;99.90;;;;;;5046768;28;20041;-62
2023/04/10 04:46:23;;;;;;;13.57;8.30;;;3.60;99.90;;;;;;5045843;28;20053;-61
2023/04/10 04:48:49;;;;;;;14.95;9.15;;;3.60;99.90;;;;;;5047005;28;20961;-61
2023/04/10 04:51:15;;;;;;;14.93;8.30;;;3.60;99.90;;;;;;5045541;28;20068;-60
2023/04/10 04:53:40;;;;;;;14.60;8.55;;;3.50;99.90;;;;;;5046790;28;20064;-59
2023/04/10 04:56:06;;;;;;;15.05;8.40;;;3.50;99.90;;;;;;5044880;28;20037;-56
2023/04/10 04:58:32;;;;;;;14.15;8.63;;;3.60;99.90;;;;;;5046415;28;20144;-62
2023/04/10 05:00:58;;;;;;;14.13;8.23;;;3.60;99.90;;;;;;5043082;28;20787;-61
2023/04/10 05:03:24;;;;;;;13.82;8.85;;;3.70;99.90;;;;;;5046743;28;20544;-63
2023/04/10 05:05:50;;;;;;;14.30;8.32;;;3.70;99.90;;;;;;5043571;28;20041;-61
2023/04/10 05:08:15;;;;;;;15.63;8.48;;;3.90;99.90;;;;;;5045171;28;20040;-62
2023/04/10 05:10:41;;;;;;;14.98;8.48;;;4.00;99.90;;;;;;5045491;28;20114;-62
2023/04/10 05:13:06;;;;;;;13.95;8.73;;;4.10;99.90;;;;;;5047633;28;20040;-63
2023/04/10 05:15:32;;;;;;;12.65;7.93;;;4.30;99.90;;;;;;5045069;28;20294;-61
2023/04/10 05:17:58;;;;;;;11.65;7.63;;;4.60;99.90;;;;;;5045771;28;20056;-60
2023/04/10 05:20:23;;;;;;;15.15;8.52;;;5.20;99.90;;;;;;5046385;28;20033;-61
2023/04/10 05:22:49;;;;;;;12.77;8.25;;;5.80;99.90;;;;;;5045773;28;20098;-56
2023/04/10 05:25:15;;;;;;;12.80;8.20;;;6.50;99.90;;;;;;5042988;28;20025;-64
2023/04/10 05:27:40;;;;;;;10.82;7.32;;;6.80;99.90;;;;;;5034251;28;20048;-61
2023/04/10 05:30:07;;;;;;;13.25;7.28;;;7.10;99.90;;;;;;5046326;28;20139;-57
2023/04/10 05:32:32;;;;;;;13.52;8.60;;;7.60;99.90;;;;;;5043473;28;20057;-59
2023/04/10 05:34:58;;;;;;;;;;;8.10;99.90;;;;;;5042067;28;20612;-67
2023/04/10 05:37:23;;;;;;;11.77;7.47;;;8.30;99.90;;;;;;5039330;28;20015;-60
2023/04/10 05:39:49;;;;;;;;;;;8.50;99.90;;;;;;5045568;28;20191;-62
2023/04/10 05:42:15;;;;;;;10.93;6.90;;;8.90;99.90;;;;;;5045703;28;19920;-62
2023/04/10 05:44:40;;;;;;;;;;;8.90;99.90;;;;;;5046235;28;20032;-61
2023/04/10 05:47:06;;;;;;;11.73;7.70;;;9.20;99.90;;;;;;5044753;28;19936;-61
2023/04/10 05:49:32;;;;;;;11.05;7.68;;;9.20;99.90;;;;;;5045605;28;20571;-55
2023/04/10 05:51:57;;;;;;;13.88;8.95;;;8.70;99.90;;;;;;5044632;28;20090;-57
2023/04/10 05:54:23;;;;;;;;;;;8.50;99.90;;;;;;5045975;28;20040;-54
2023/04/10 05:56:49;;;;;;;17.38;9.68;;;8.50;99.90;;;;;;5044258;28;19995;-62
2023/04/10 05:59:14;;;;;;;;;;;8.20;99.90;;;;;;5044914;28;20788;-59
2023/04/10 06:01:40;;;;;;;14.32;9.40;;;8.10;99.90;;;;;;5042837;28;19924;-63
2023/04/10 06:04:06;;;;;;;13.52;8.93;;;8.00;99.90;;;;;;5045567;28;20041;-62
2023/04/10 06:06:32;;;;;;;;;;;8.10;99.90;;;;;;5044217;28;20060;-63
2023/04/10 06:08:58;;;;;;;16.20;8.63;;;8.50;99.90;;;;;;5044104;28;19932;-61
2023/04/10 06:11:23;;;;;;;;;;;9.10;99.90;;;;;;5044900;28;20052;-62
2023/04/10 06:13:49;;;;;;;15.18;9.50;;;9.50;99.90;;;;;;5045135;28;19977;-62
2023/04/10 06:16:15;;;;;;;;;;;9.40;99.90;;;;;;5043660;28;20105;-64
2023/04/10 06:18:41;;;;;;;15.35;9.13;;;9.70;99.90;;;;;;5044917;28;20533;-62
2023/04/10 06:21:06;;;;;;;;;;;9.60;99.90;;;;;;5043931;28;20078;-62
2023/04/10 06:23:32;;;;;;;13.45;8.68;;;9.40;99.90;;;;;;5045772;28;19947;-63
2023/04/10 06:25:58;;;;;;;;;;;9.30;99.90;;;;;;5042051;28;20138;-64
2023/04/10 06:28:24;;;;;;;15.48;9.85;;;9.30;99.90;;;;;;5044604;28;20398;-63
2023/04/10 06:30:49;;;;;;;;;;;9.10;99.90;;;;;;5046336;28;20037;-62
2023/04/10 06:33:15;;;;;;;13.40;9.02;;;8.90;99.90;;;;;;5045579;28;19956;-63
2023/04/10 06:35:41;;;;;;;;;;;8.70;99.90;;;;;;5044101;28;20041;-62
2023/04/10 06:38:07;;;;;;;14.68;9.55;;;8.90;99.90;;;;;;5044316;28;19931;-61
2023/04/10 06:40:33;;;;;;;15.00;9.80;;;9.00;99.90;;;;;;5044758;28;20080;-59
2023/04/10 06:42:59;;;;;;;;;;;8.90;99.90;;;;;;5044555;28;20041;-59
2023/04/10 06:45:24;;;;;;;12.35;8.50;;;8.80;99.90;;;;;;5044497;28;19917;-61
2023/04/10 06:47:50;;;;;;;;;;;9.00;99.90;;;;;;5044193;28;20042;-59
2023/04/10 06:50:16;;;;;;;16.02;9.68;;;9.10;99.90;;;;;;5043213;28;19928;-64
2023/04/10 06:52:42;;;;;;;;;;;9.10;99.90;;;;;;5036423;28;20072;-63
2023/04/10 06:55:08;;;;;;;12.88;9.23;;;9.00;99.90;;;;;;5043493;28;19920;-61
2023/04/10 06:57:34;;;;;;;;;;;8.70;99.90;;;;;;5036220;28;20500;-62
2023/04/10 07:00:00;;;;;;;15.40;8.57;;;8.90;99.90;;;;;;5039889;28;19981;-63
2023/04/10 07:02:25;;;;;;;;;;;9.40;99.90;;;;;;5025283;28;20571;-62
2023/04/10 07:04:52;;;;;;;13.90;9.25;;;9.40;99.70;;;;;;5041041;28;19920;-62
2023/04/10 07:07:18;;;;;;;12.63;8.52;;;9.40;99.90;;;;;;5041074;28;20099;-63
2023/04/10 07:09:43;;;;;;;;;;;9.40;99.50;;;;;;5044809;28;20064;-63
2023/04/10 07:12:09;;;;;;;16.35;8.80;;;9.40;99.50;;;;;;5025118;28;19921;-61
2023/04/10 07:14:35;;;;;;;;;;;9.60;99.30;;;;;;5044641;28;20056;-59
2023/04/10 07:17:01;;;;;;;13.38;8.75;;;9.60;99.30;;;;;;5040728;28;20851;-57
2023/04/10 07:19:27;;;;;;;;;;;9.70;99.60;;;;;;5044572;28;20059;-59
2023/04/10 07:21:52;;;;;;;13.43;8.35;;;9.90;99.90;;;;;;5043955;28;19956;-62
2023/04/10 07:24:18;;;;;;;;;;;9.90;99.30;;;;;;5044586;28;20040;-62
2023/04/10 07:26:44;;;;;;;15.95;9.30;;;9.80;99.10;;;;;;5042542;28;19921;-57
2023/04/10 07:29:10;;;;;;;13.55;8.65;;;9.80;98.90;;;;;;5047949;28;20070;-63
2023/04/10 07:31:36;;;;;;;13.57;8.68;;;9.80;99.30;;;;;;5046266;28;20048;-60
2023/04/10 07:34:02;;;;;;;;;;;9.90;99.20;;;;;;5048936;28;20512;-62
2023/04/10 07:36:27;;;;;;;14.75;9.25;;;10.10;99.30;;;;;;5046864;28;19982;-63
2023/04/10 07:38:54;;;;;;;;;;;10.10;98.70;;;;;;5048764;28;20045;-61
2023/04/10 07:41:19;;;;;;;12.45;8.52;;;10.40;98.10;;;;;;5044617;28;20054;-59
2023/04/10 07:43:45;;;;;;;;;;;10.70;97.60;;;;;;5048099;28;20144;-62
2023/04/10 07:46:11;;;;;;;15.93;9.65;;;10.90;97.50;;;;;;5046290;28;19929;-61
2023/04/10 07:48:36;;;;;;;;;;;10.80;97.00;;;;;;5048075;28;20052;-60
2023/04/10 07:51:02;;;;;;;12.95;8.55;;;10.90;97.30;;;;;;5047040;28;20655;-57
2023/04/10 07:53:27;;;;;;;;;;;10.70;97.20;;;;;;5048032;28;20044;-58
2023/04/10 07:55:53;;;;;;;15.73;9.00;;;11.10;96.70;;;;;;5046888;28;19927;-60
2023/04/10 07:58:19;;;;;;;;;;;11.60;95.80;;;;;;5047784;28;20113;-61
2023/04/10 08:00:45;;;;;;;11.35;7.28;;;12.00;94.80;;;;;;5045682;28;19917;-62
2023/04/10 08:03:12;;;;;;;12.65;8.32;;;12.10;94.70;;;;;;5045524;28;20060;-61
2023/04/10 08:05:37;;;;;;;10.60;7.90;;;12.50;93.50;;;;;;5045570;28;20037;-61
2023/04/10 08:08:03;;;;;;;;;;;13.50;91.70;;;;;;5047554;28;20677;-60
2023/04/10 08:10:28;;;;;;;10.65;7.63;;;14.50;90.00;;;;;;5047238;28;19923;-61
2023/04/10 08:12:55;;;;;;;9.63;7.18;;;15.50;87.80;;;;;;5046766;28;20049;-62
2023/04/10 08:15:20;;;;;;;8.73;6.88;;;15.50;84.50;;;;;;5047069;28;20536;-62
2023/04/10 08:17:46;;;;;;;9.88;7.07;;;16.20;84.40;;;;;;5046318;28;20044;-61
2023/04/10 08:20:12;;;;;;;8.15;6.20;;;16.90;79.80;;;;;;5047260;28;20115;-59
2023/04/10 08:22:37;;;;;;;9.88;6.75;;;16.60;78.60;;;;;;5046707;28;20044;-61
2023/04/10 08:25:04;;;;;;;9.25;6.65;;;16.60;79.10;;;;;;5045857;28;20626;-62
2023/04/10 08:27:30;;;;;;;8.25;6.55;;;16.40;78.40;;;;;;5047044;28;20142;-63
2023/04/10 08:29:56;;;;;;;8.70;6.43;;;17.10;78.90;;;;;;5045040;28;20461;-61
2023/04/10 08:32:22;;;;;;;9.20;6.70;;;16.60;75.40;;;;;;5045870;28;20472;-61
2023/04/10 08:34:48;;;;;;;9.25;6.43;;;16.60;75.00;;;;;;5046429;28;20088;-60
2023/04/10 08:37:14;;;;;;;9.80;6.90;;;16.50;77.40;;;;;;5048388;28;20049;-59
2023/04/10 08:39:40;;;;;;;;;;;15.60;78.50;;;;;;5046776;28;20053;-60
2023/04/10 08:42:06;;;;;;;11.15;7.82;;;14.30;81.70;;;;;;5046157;28;20034;-56
2023/04/10 08:44:32;;;;;;;12.02;7.50;;;12.90;88.80;;;;;;5046834;28;20037;-58
2023/04/10 08:46:59;;;;;;;;;;;12.10;90.40;;;;;;5045877;28;20094;-64
2023/04/10 08:49:38;;;;;;;11.43;7.80;;;11.80;91.20;;;;;;5046664;28;20480;-59
2023/04/10 08:52:12;;;;;;;13.02;8.65;;;11.50;92.10;;;;;;5045889;28;20045;-60
2023/04/10 08:54:40;;;;;;;11.52;8.23;;;11.50;92.60;;;;;;5046352;28;20127;-59
2023/04/10 08:57:07;;;;;;;9.80;6.88;;;11.60;93.60;;;;;;5045369;28;20080;-59
2023/04/10 08:59:33;;;;;;;11.68;7.65;;;11.60;93.30;;;;;;5045277;28;20503;-57
2023/04/10 09:01:58;;;;;;;;;;;11.70;92.40;;;;;;5048432;28;20041;-61
2023/04/10 09:04:25;;;;;;;10.38;7.63;;;11.70;91.90;;;;;;5045199;28;20050;-62
2023/04/10 09:06:53;;;;;;;13.02;9.13;;;11.80;91.80;;;;;;5045506;28;20136;-61
2023/04/10 09:09:19;;;;;;;15.05;9.57;;;11.80;93.10;;;;;;5046260;28;20088;-59
2023/04/10 09:11:59;;;;;;;;;;;11.60;92.40;;;;;;5046068;28;20041;-61
2023/04/10 09:14:32;;;;;;;13.23;8.07;;;11.60;92.60;;;;;;5046239;28;19932;-58
2023/04/10 09:17:17;;;;;;;12.48;8.52;;;11.30;92.20;;;;;;5045478;28;20083;-60
2023/04/10 09:19:45;;;;;;;16.52;9.10;;;11.30;93.60;;;;;;5045735;28;20032;-58
2023/04/10 09:22:11;;;;;;;13.05;8.52;;;11.50;92.40;;;;;;5045785;28;20033;-61
2023/04/10 09:24:42;;;;;;;12.80;9.13;;;11.60;92.60;;;;;;5045567;28;20041;-60
2023/04/10 09:27:08;;;;;;;15.90;9.85;;;11.60;93.50;;;;;;5036958;28;20077;-63
2023/04/10 09:29:41;;;;;;;17.92;9.50;;;11.70;93.10;;;;;;5046363;28;20114;-61
2023/04/10 09:32:07;;;;;;;17.40;10.10;;;11.80;92.60;;;;;;5037261;28;20063;-61
2023/04/10 09:34:32;;;;;;;;;;;11.90;93.50;;;;;;5045817;28;20730;-62
2023/04/10 09:37:02;;;;;;;14.77;9.90;;;11.90;92.90;;;;;;5044623;28;20018;-58
2023/04/10 09:39:37;;;;;;;15.95;10.20;;;11.90;93.40;;;;;;5045960;28;20040;-63
2023/04/10 09:42:03;;;;;;;13.60;9.32;;;11.60;93.50;;;;;;5045019;28;20044;-62
2023/04/10 09:44:34;;;;;;;14.32;9.77;;;11.60;93.60;;;;;;5045771;28;20052;-61
2023/04/10 09:47:21;;;;;;;14.43;9.98;;;11.60;93.10;;;;;;5044896;28;20045;-62
2023/04/10 09:49:59;;;;;;;15.15;9.05;;;11.70;92.80;;;;;;5045300;28;20047;-61
2023/04/10 09:52:33;;;;;;;14.70;8.73;;;11.90;93.60;;;;;;5045228;28;20037;-62
2023/04/10 09:55:01;;;;;;;12.98;8.60;;;12.00;94.10;;;;;;5044404;28;20045;-61
2023/04/10 09:57:28;;;;;;;16.45;9.55;;;12.30;94.50;;;;;;5042445;28;20069;-60
2023/04/10 09:59:56;;;;;;;16.85;8.85;;;12.30;91.90;;;;;;5044178;28;20040;-60
2023/04/10 10:02:23;;;;;;;13.77;8.30;;;12.50;92.30;;;;;;5042804;28;20040;-62
2023/04/10 10:04:51;;;;;;;15.40;8.55;;;12.70;93.30;;;;;;5045036;28;20102;-63
2023/04/10 10:07:21;;;;;;;13.30;8.15;;;12.70;91.90;;;;;;5044943;28;20048;-61
2023/04/10 10:09:48;;;;;;;14.48;9.25;;;12.70;92.80;;;;;;5045616;28;20033;-61
2023/04/10 10:12:43;;;;;;;13.52;9.15;;;12.50;91.60;;;;;;5044944;28;20080;-61
2023/04/10 10:15:30;;;;;;;11.57;8.30;;;12.50;92.50;;;;;;5044564;28;20041;-57
2023/04/10 10:18:02;;;;;;;11.27;7.22;;;12.40;92.40;;;;;;5044374;28;20049;-59
2023/04/10 10:20:30;;;;;;;16.52;8.95;;;12.80;93.00;;;;;;5045035;28;20102;-62
2023/04/10 10:22:57;;;;;;;10.82;7.38;;;12.90;92.20;;;;;;5044651;28;20128;-60
2023/04/10 10:25:24;;;;;;;13.20;6.90;;;13.00;91.00;;;;;;5043748;28;20048;-58
2023/04/10 10:27:52;;;;;;;10.82;7.22;;;12.90;91.50;;;;;;5043504;28;20044;-63
2023/04/10 10:30:19;;;;;;;11.82;7.70;;;13.10;93.10;;;;;;5043873;28;20043;-61
2023/04/10 10:32:46;;;;;;;11.95;7.57;;;13.00;91.40;;;;;;5043231;28;20567;-59
2023/04/10 10:35:12;;;;;;;10.57;7.72;;;13.10;92.20;;;;;;5045084;28;20133;-60
2023/04/10 10:37:38;;;;;;;;;;;13.10;91.00;;;;;;5044054;28;20115;-61
2023/04/10 10:40:26;;;;;;;11.38;8.00;;;12.80;90.20;;;;;;5044863;28;19928;-62
2023/04/10 10:43:12;;;;;;;9.57;6.15;;;12.70;92.00;;;;;;5044198;28;20049;-62
2023/04/10 10:46:07;;;;;;;10.20;6.33;;;12.90;93.00;;;;;;5042807;28;20587;-60
2023/04/10 10:48:33;;;;;;;10.20;6.18;;;13.10;91.70;;;;;;5039947;28;20044;-61
2023/04/10 10:50:59;;;;;;;;;;;13.10;91.30;;;;;;5043882;28;20111;-59
2023/04/10 10:53:43;;;;;;;9.55;6.50;;;13.10;90.90;;;;;;5045122;28;19924;-60
2023/04/10 10:56:18;;;;;;;12.82;6.47;;;13.00;91.10;;;;;;5042721;28;20448;-58
2023/04/10 10:58:56;;;;;;;8.60;5.82;;;13.00;90.20;;;;;;5043816;28;20048;-61
2023/04/10 11:01:22;;;;;;;9.48;6.20;;;13.00;90.40;;;;;;5041135;28;20036;-63
2023/04/10 11:03:48;;;;;;;9.35;6.10;;;13.20;90.70;;;;;;5044339;28;20763;-62
2023/04/10 11:06:18;;;;;;;8.20;5.75;;;13.40;90.70;;;;;;5043128;28;20455;-60
2023/04/10 11:08:45;;;;;;;6.93;4.85;;;13.40;88.50;;;;;;5044020;28;20052;-61
2023/04/10 11:11:14;;;;;;;7.28;5.13;;;13.50;88.60;;;;;;5042649;28;20076;-60
2023/04/10 11:14:03;;;;;;;6.78;5.10;;;13.70;90.40;;;;;;5044274;28;20044;-59
2023/04/10 11:16:30;;;;;;;8.40;4.97;;;14.00;87.50;;;;;;5036050;28;20053;-61
2023/04/10 11:19:11;;;;;;;6.20;4.22;;;14.10;88.60;;;;;;5043534;28;20698;-59
2023/04/10 11:22:06;;;;;;;7.47;4.68;;;14.00;87.30;;;;;;5041216;28;20033;-58
2023/04/10 11:24:51;;;;;;;7.53;4.95;;;13.80;86.70;;;;;;5044162;28;20056;-60
2023/04/10 11:27:39;;;;;;;6.47;4.47;;;13.60;85.50;;;;;;5042628;28;20037;-62
2023/04/10 11:30:25;;;;;;;6.80;4.28;;;13.60;87.10;;;;;;5036582;28;20091;-62
2023/04/10 11:32:50;;;;;;;6.85;3.60;;;13.70;85.70;;;;;;5042580;28;20041;-58
2023/04/10 11:35:20;;;;;;;;;;;13.80;86.60;;;;;;5038907;28;20564;-59
2023/04/10 11:37:46;;;;;;;5.82;3.65;;;13.90;86.90;;;;;;5043656;28;19920;-60
2023/04/10 11:40:11;;;;;;;;;;;13.80;85.90;;;;;;5042278;28;20576;-61
2023/04/10 11:42:37;;;;;;;5.15;3.53;;;13.80;85.10;;;;;;5043542;28;19928;-61
2023/04/10 11:45:25;;;;;;;7.53;4.10;;;13.90;85.90;;;;;;5039580;28;20374;-62
2023/04/10 11:47:54;;;;;;;7.15;4.30;;;14.00;84.70;;;;;;5049489;28;20678;-60
2023/04/10 11:50:20;;;;;;;5.97;4.18;;;13.90;84.50;;;;;;5038606;28;20029;-61
2023/04/10 11:52:50;;;;;;;6.93;3.70;;;13.80;85.10;;;;;;5043473;28;20795;-61
2023/04/10 11:55:16;;;;;;;6.45;4.15;;;13.80;83.40;;;;;;5039379;28;20047;-61
2023/04/10 11:57:41;;;;;;;;;;;13.60;85.00;;;;;;5043310;28;20033;-59
2023/04/10 12:00:07;;;;;;;5.50;3.72;;;13.60;85.70;;;;;;5039846;28;19970;-61
2023/04/10 12:02:33;;;;;;;4.53;3.45;;;13.60;86.30;;;;;;5023273;28;20136;-61
2023/04/10 12:04:59;;;;;;;;;;;13.60;85.00;;;;;;5023148;28;20124;-62
2023/04/10 12:07:27;;;;;;;6.32;4.65;;;13.60;86.50;;;;;;5023605;28;19943;-61
2023/04/10 12:09:57;;;;;;;7.00;3.95;;;13.60;87.60;;;;;;5023778;28;20049;-61
2023/04/10 12:12:35;;;;;;;5.40;3.75;;;13.60;87.60;;;;;;5022264;28;20409;-60
2023/04/10 12:15:00;;;;;;;6.72;4.07;;;13.70;87.20;;;;;;5026503;28;20041;-60
2023/04/10 12:17:26;;;;;;;;;;;13.80;87.70;;;;;;5027098;28;20040;-61
2023/04/10 12:19:52;;;;;;;5.63;3.97;;;13.80;86.90;;;;;;5027305;28;20008;-62
2023/04/10 12:22:18;;;;;;;4.38;3.60;;;13.70;86.10;;;;;;5026863;28;20128;-62
2023/04/10 12:24:46;;;;;;;5.43;3.97;;;13.70;86.20;;;;;;5027849;28;20042;-58
2023/04/10 12:27:25;;;;;;;6.32;4.28;;;13.70;88.30;;;;;;5026073;28;20042;-62
2023/04/10 12:29:56;;;;;;;6.25;4.07;;;13.70;87.20;;;;;;5027281;28;20041;-62
2023/04/10 12:32:23;;;;;;;5.47;3.80;;;13.80;85.70;;;;;;5028089;28;20065;-61
2023/04/10 12:34:56;;;;;;;5.60;3.97;;;13.90;87.70;;;;;;5028471;28;20080;-62
2023/04/10 12:37:22;;;;;;;9.05;4.53;;;14.20;88.00;;;;;;5026357;28;20124;-60
2023/04/10 12:39:48;;;;;;;6.35;4.03;;;14.10;85.80;;;;;;5025402;28;20045;-62
2023/04/10 12:42:15;;;;;;;6.35;4.20;;;14.20;88.80;;;;;;5026460;28;20034;-62
2023/04/10 12:44:59;;;;;;;6.25;4.10;;;14.40;86.20;;;;;;5025888;28;20048;-62
2023/04/10 12:47:27;;;;;;;6.70;4.18;;;14.60;87.30;;;;;;5023222;28;20120;-62
2023/04/10 12:50:15;;;;;;;8.07;3.72;;;14.80;88.10;;;;;;5028050;28;20485;-63
2023/04/10 12:52:43;;;;;;;8.43;3.28;;;14.70;84.30;;;;;;5026819;28;20052;-62
2023/04/10 12:55:22;;;;;;;3.92;3.08;;;14.60;85.60;;;;;;5025974;28;20525;-60
2023/04/10 12:57:50;;;;;;;4.90;3.50;;;14.50;82.60;;;;;;5024687;28;20685;-60
2023/04/10 13:00:17;;;;;;;5.15;3.28;;;14.40;81.70;;;;;;5026325;28;20045;-60
2023/04/10 13:02:44;;;;;;;4.97;2.97;;;14.20;82.10;;;;;;5025913;28;20409;-60
2023/04/10 13:05:10;;;;;;;5.57;3.67;;;14.20;83.80;;;;;;5026102;28;20455;-62